This is the latest recevied weather packets stored in our database for station/object AI9F. If no packets are shown the sender has not sent any weather packets the latest 10 day(s).
| Time | Temp. | Humidity | Pressure | Rain* | Wind** | Luminosity | Snow |
|---|---|---|---|---|---|---|---|
| 1777489272 | 18.89° C | 51% | 1015.5 hPa | 0 mm | - | 923 W/m² | - |
| 1777488969 | 18.89° C | 52% | 1015.3 hPa | 0 mm | - | 922 W/m² | - |
| 1777488666 | 18.33° C | 52% | 1015.6 hPa | 0 mm | - | 935 W/m² | - |
| 1777488364 | 18.89° C | 50% | 1015.3 hPa | 0 mm | - | 945 W/m² | - |
| 1777488062 | 18.89° C | 51% | 1015.4 hPa | 0 mm | - | 922 W/m² | - |
| 1777487759 | 18.33° C | 53% | 1015.4 hPa | 0 mm | - | 895 W/m² | - |
| 1777487457 | 17.78° C | 56% | 1015.5 hPa | 0 mm | - | 489 W/m² | - |
| 1777487154 | 17.78° C | 54% | 1015.3 hPa | 0 mm | - | 240 W/m² | - |
| 1777486850 | 18.33° C | 51% | 1015.6 hPa | 0 mm | - | 237 W/m² | - |
| 1777486547 | 17.22° C | 55% | 1015.4 hPa | 0 mm | - | 1104 W/m² | - |
| 1777486245 | 17.22° C | 56% | 1015.5 hPa | 0 mm | - | 228 W/m² | - |
| 1777485942 | 17.78° C | 57% | 1015.6 hPa | 0 mm | - | 616 W/m² | - |
| 1777485638 | 17.78° C | 58% | 1015.8 hPa | 0 mm | - | 1065 W/m² | - |
| 1777485333 | 18.33° C | 56% | 1015.6 hPa | 0 mm | - | 210 W/m² | - |
| 1777485030 | 17.78° C | 57% | 1015.7 hPa | 0 mm | - | 338 W/m² | - |
| 1777484727 | 17.22° C | 57% | 1015.7 hPa | 0 mm | - | 1033 W/m² | - |
| 1777484424 | 17.22° C | 60% | 1015.5 hPa | 0 mm | - | 399 W/m² | - |
| 1777484121 | 17.78° C | 56% | 1015.7 hPa | 0 mm | - | 264 W/m² | - |
| 1777483816 | 17.78° C | 56% | 1015.5 hPa | 0 mm | - | 358 W/m² | - |
| 1777483514 | 18.89° C | 53% | 1015.8 hPa | 0 mm | - | 258 W/m² | - |
| 1777483208 | 19.44° C | 54% | 1015.3 hPa | 0 mm | - | 455 W/m² | - |
| 1777482905 | 19.44° C | 55% | 1015.5 hPa | 0 mm | - | 365 W/m² | - |
| 1777482600 | 18.89° C | 55% | 1015.2 hPa | 0 mm | - | 919 W/m² | - |
| 1777482298 | 18.89° C | 55% | 1015.4 hPa | 0 mm | - | 858 W/m² | - |
| 1777481995 | 18.33° C | 57% | 1015 hPa | 0 mm | - | 865 W/m² | - |
* Rain latest hour (hover to see other rain measurements)
** Current wind speed in m/s (hover to see current wind gust speed)